Time;durP1;ratioP1;P1;durP2;ratioP2;P2;SDS_P1;SDS_P2;PMS_P1;PMS_P2;Temp;Humidity;BMP_temperature;BMP_pressure;BME280_temperature;BME280_humidity;BME280_pressure;Samples;Min_cycle;Max_cycle;Signal;HPM_P1;HPM_P2
2023/07/31 00:01:03;;;;;;;4.00;1.40;;;;;;;;;;4932574;28;92524;-83
2023/07/31 00:03:30;;;;;;;5.15;1.10;;;;;;;;;;4940005;28;95468;-83
2023/07/31 00:05:56;;;;;;;4.35;1.20;;;;;;;;;;4952329;28;92830;-83
2023/07/31 00:08:23;;;;;;;3.22;1.13;;;;;;;;;;4942720;28;92464;-84
2023/07/31 00:10:53;;;;;;;3.28;1.08;;;;;;;;;;4934602;28;92816;-84
2023/07/31 00:13:20;;;;;;;3.97;1.05;;;;;;;;;;4935919;28;96690;-84
2023/07/31 00:15:46;;;;;;;2.28;0.98;;;;;;;;;;4951320;28;92941;-85
2023/07/31 00:18:13;;;;;;;4.25;1.00;;;;;;;;;;4950074;28;93439;-85
2023/07/31 00:20:39;;;;;;;1.92;0.82;;;;;;;;;;4954553;28;92993;-85
2023/07/31 00:23:06;;;;;;;3.47;0.93;;;;;;;;;;4951523;28;92823;-86
2023/07/31 00:25:32;;;;;;;2.03;0.98;;;;;;;;;;4931093;28;93354;-86
2023/07/31 00:27:59;;;;;;;2.17;0.90;;;;;;;;;;4937911;28;92882;-86
2023/07/31 00:30:26;;;;;;;3.35;1.02;;;;;;;;;;4938271;28;93109;-86
2023/07/31 00:32:53;;;;;;;5.38;1.30;;;;;;;;;;4932991;28;93788;-85
2023/07/31 00:35:20;;;;;;;3.10;1.05;;;;;;;;;;4917530;28;92892;-85
2023/07/31 00:37:46;;;;;;;3.33;1.30;;;;;;;;;;4947537;28;95288;-84
2023/07/31 00:40:14;;;;;;;5.18;1.30;;;;;;;;;;4942581;28;96200;-85
2023/07/31 00:42:40;;;;;;;4.65;1.42;;;;;;;;;;4950365;28;92447;-84
2023/07/31 00:45:07;;;;;;;5.32;1.52;;;;;;;;;;4950776;28;93566;-85
2023/07/31 00:47:33;;;;;;;7.05;1.77;;;;;;;;;;4944732;28;92892;-84
2023/07/31 00:50:00;;;;;;;5.95;1.80;;;;;;;;;;4952366;28;92806;-83
2023/07/31 00:52:27;;;;;;;7.25;1.90;;;;;;;;;;4948985;28;96081;-86
2023/07/31 00:54:55;;;;;;;6.78;2.20;;;;;;;;;;4940762;28;91648;-83
2023/07/31 00:57:21;;;;;;;8.95;2.13;;;;;;;;;;4948250;28;92552;-84
2023/07/31 00:59:50;;;;;;;9.25;2.25;;;;;;;;;;4947429;28;94781;-85
2023/07/31 01:02:16;;;;;;;9.60;2.60;;;;;;;;;;4946670;28;95260;-85
2023/07/31 01:04:45;;;;;;;11.02;2.95;;;;;;;;;;4931387;28;93021;-86
2023/07/31 01:07:22;;;;;;;9.90;2.88;;;;;;;;;;4939180;28;92443;-91
2023/07/31 01:09:57;;;;;;;11.05;3.30;;;;;;;;;;4918799;28;94180;-91
2023/07/31 01:12:24;;;;;;;11.32;2.80;;;;;;;;;;4948574;28;95926;-90
2023/07/31 01:15:10;;;;;;;11.40;3.10;;;;;;;;;;4935075;28;92396;-88
2023/07/31 01:17:38;;;;;;;13.32;3.30;;;;;;;;;;4955358;28;92478;-86
2023/07/31 01:20:05;;;;;;;;;;;;;;;;;;4942180;28;95101;-86
2023/07/31 01:22:50;;;;;;;10.57;2.95;;;;;;;;;;4967813;28;113474;-87
2023/07/31 01:25:22;;;;;;;9.57;2.78;;;;;;;;;;4953996;28;92939;-87
2023/07/31 01:28:09;;;;;;;12.02;2.70;;;;;;;;;;4953198;28;94791;-88
2023/07/31 01:30:39;;;;;;;10.68;3.13;;;;;;;;;;4954039;28;95206;-88
2023/07/31 01:33:07;;;;;;;11.38;2.67;;;;;;;;;;4938646;28;93166;-85
2023/07/31 01:35:34;;;;;;;12.35;3.00;;;;;;;;;;4949733;28;92654;-85
2023/07/31 01:38:01;;;;;;;;;;;;;;;;;;4943826;28;93007;-84
2023/07/31 01:40:28;;;;;;;10.85;3.33;;;;;;;;;;4954157;28;93116;-84
2023/07/31 01:42:54;;;;;;;11.88;3.20;;;;;;;;;;4957075;28;92682;-85
2023/07/31 01:45:21;;;;;;;15.35;3.17;;;;;;;;;;4951325;28;92853;-84
2023/07/31 01:47:47;;;;;;;9.05;2.90;;;;;;;;;;4969719;28;93061;-84
2023/07/31 01:50:14;;;;;;;9.20;3.03;;;;;;;;;;4954833;28;92911;-84
2023/07/31 01:52:41;;;;;;;9.85;3.10;;;;;;;;;;4947020;28;96681;-85
2023/07/31 01:55:07;;;;;;;8.95;2.90;;;;;;;;;;4942914;28;92538;-85
2023/07/31 01:57:36;;;;;;;10.88;3.22;;;;;;;;;;4948472;28;93428;-85
2023/07/31 02:00:03;;;;;;;11.70;2.88;;;;;;;;;;4952848;28;93241;-85
2023/07/31 02:02:37;;;;;;;11.23;3.55;;;;;;;;;;4944738;28;92517;-86
2023/07/31 02:05:04;;;;;;;9.65;3.42;;;;;;;;;;4938248;28;94545;-86
2023/07/31 02:07:30;;;;;;;12.30;3.50;;;;;;;;;;4940977;28;93650;-83
2023/07/31 02:09:57;;;;;;;11.93;3.08;;;;;;;;;;4950322;28;92196;-85
2023/07/31 02:12:23;;;;;;;9.98;3.40;;;;;;;;;;4950434;28;95959;-85
2023/07/31 02:14:50;;;;;;;10.85;3.50;;;;;;;;;;4947867;28;92437;-83
2023/07/31 02:17:16;;;;;;;11.70;3.70;;;;;;;;;;4950319;28;95600;-84
2023/07/31 02:19:43;;;;;;;13.43;3.60;;;;;;;;;;4940673;28;93336;-83
2023/07/31 02:22:10;;;;;;;12.50;3.13;;;;;;;;;;4948770;28;92464;-84
2023/07/31 02:24:36;;;;;;;10.70;3.13;;;;;;;;;;4949373;28;92991;-84
2023/07/31 02:27:03;;;;;;;10.70;2.63;;;;;;;;;;4947280;28;92478;-83
2023/07/31 02:29:29;;;;;;;8.50;3.08;;;;;;;;;;4964280;28;92447;-84
2023/07/31 02:31:56;;;;;;;8.57;2.78;;;;;;;;;;4961807;28;92871;-85
2023/07/31 02:34:22;;;;;;;7.35;2.60;;;;;;;;;;4951378;28;92143;-85
2023/07/31 02:36:49;;;;;;;10.18;3.20;;;;;;;;;;4962447;28;92711;-84
2023/07/31 02:39:17;;;;;;;9.25;3.05;;;;;;;;;;4954699;28;94100;-84
2023/07/31 02:41:43;;;;;;;9.75;2.80;;;;;;;;;;4938962;28;95377;-84
2023/07/31 02:44:12;;;;;;;9.90;2.85;;;;;;;;;;4961971;28;94593;-85
2023/07/31 02:46:39;;;;;;;9.57;2.97;;;;;;;;;;4947610;28;96215;-85
2023/07/31 02:49:06;;;;;;;9.52;2.92;;;;;;;;;;4944464;28;92641;-85
2023/07/31 02:51:32;;;;;;;9.80;2.80;;;;;;;;;;4954163;28;95512;-85
2023/07/31 02:53:59;;;;;;;9.95;2.92;;;;;;;;;;4938059;28;92981;-84
2023/07/31 02:56:25;;;;;;;10.98;2.88;;;;;;;;;;4950486;28;94751;-85
2023/07/31 02:58:52;;;;;;;8.98;2.90;;;;;;;;;;4952408;28;92697;-85
2023/07/31 03:01:19;;;;;;;12.45;2.90;;;;;;;;;;4949506;28;92609;-84
2023/07/31 03:03:45;;;;;;;9.75;2.83;;;;;;;;;;4934429;28;92998;-86
2023/07/31 03:06:12;;;;;;;9.63;3.00;;;;;;;;;;4929241;28;96496;-86
2023/07/31 03:08:38;;;;;;;9.30;2.97;;;;;;;;;;4946567;28;92430;-87
2023/07/31 03:11:05;;;;;;;8.07;2.90;;;;;;;;;;4931739;28;94367;-86
2023/07/31 03:13:34;;;;;;;12.35;3.10;;;;;;;;;;4951386;28;93081;-86
2023/07/31 03:16:00;;;;;;;11.50;3.20;;;;;;;;;;4944261;28;92481;-85
2023/07/31 03:18:27;;;;;;;12.00;3.35;;;;;;;;;;4951231;28;93170;-88
2023/07/31 03:20:54;;;;;;;9.13;3.40;;;;;;;;;;4941477;28;92408;-88
2023/07/31 03:23:20;;;;;;;13.95;3.70;;;;;;;;;;4948188;28;92740;-87
2023/07/31 03:25:57;;;;;;;12.00;3.42;;;;;;;;;;4942078;28;93456;-84
2023/07/31 03:28:27;;;;;;;10.38;3.33;;;;;;;;;;4959756;28;92418;-87
2023/07/31 03:30:53;;;;;;;11.35;3.45;;;;;;;;;;4940190;28;94846;-85
2023/07/31 03:33:20;;;;;;;9.45;3.65;;;;;;;;;;4950003;28;92986;-84
2023/07/31 03:35:47;;;;;;;13.93;3.92;;;;;;;;;;4953203;28;92886;-84
2023/07/31 03:38:13;;;;;;;12.55;3.60;;;;;;;;;;4952766;28;93081;-85
2023/07/31 03:40:40;;;;;;;11.48;3.90;;;;;;;;;;4960782;28;92482;-85
2023/07/31 03:43:07;;;;;;;11.55;3.75;;;;;;;;;;4950623;28;93949;-85
2023/07/31 03:45:33;;;;;;;12.57;4.50;;;;;;;;;;4950481;28;93161;-86
2023/07/31 03:48:00;;;;;;;11.25;4.00;;;;;;;;;;4954731;28;91786;-87
2023/07/31 03:50:26;;;;;;;11.65;3.88;;;;;;;;;;4954186;28;92557;-85
2023/07/31 03:52:53;;;;;;;12.55;4.03;;;;;;;;;;4943686;28;93285;-86
2023/07/31 03:55:21;;;;;;;11.02;3.50;;;;;;;;;;4918588;28;95084;-86
2023/07/31 03:57:48;;;;;;;11.43;3.47;;;;;;;;;;4945692;28;95147;-85
2023/07/31 04:00:14;;;;;;;13.40;4.20;;;;;;;;;;4942812;28;93242;-85
2023/07/31 04:02:41;;;;;;;9.80;3.30;;;;;;;;;;4938531;28;93062;-89
2023/07/31 04:05:11;;;;;;;12.23;4.07;;;;;;;;;;4950333;28;93329;-87
2023/07/31 04:07:37;;;;;;;14.00;3.80;;;;;;;;;;4938633;28;92693;-87
2023/07/31 04:10:04;;;;;;;12.07;3.85;;;;;;;;;;4960913;28;94862;-88
2023/07/31 04:12:31;;;;;;;11.70;3.90;;;;;;;;;;4938483;28;92960;-88
2023/07/31 04:14:57;;;;;;;12.73;4.03;;;;;;;;;;4944757;28;93041;-88
2023/07/31 04:17:24;;;;;;;14.32;3.90;;;;;;;;;;4940319;28;95718;-87
2023/07/31 04:19:50;;;;;;;12.25;3.55;;;;;;;;;;4953162;28;95455;-86
2023/07/31 04:22:17;;;;;;;12.25;3.63;;;;;;;;;;4949856;28;96895;-85
2023/07/31 04:24:43;;;;;;;11.60;3.72;;;;;;;;;;4941548;28;93228;-85
2023/07/31 04:27:10;;;;;;;13.90;4.10;;;;;;;;;;4938673;28;92527;-85
2023/07/31 04:29:37;;;;;;;12.32;4.43;;;;;;;;;;4943295;28;93115;-85
2023/07/31 04:32:03;;;;;;;12.02;4.07;;;;;;;;;;4943582;28;95861;-87
2023/07/31 04:34:30;;;;;;;11.25;3.75;;;;;;;;;;4932502;28;92554;-87
2023/07/31 04:36:56;;;;;;;11.75;3.95;;;;;;;;;;4946911;28;96127;-87
2023/07/31 04:39:23;;;;;;;11.68;3.83;;;;;;;;;;4944351;28;93761;-86
2023/07/31 04:41:49;;;;;;;12.73;4.13;;;;;;;;;;4949259;28;92436;-85
2023/07/31 04:44:16;;;;;;;10.80;3.70;;;;;;;;;;4942049;28;95848;-86
2023/07/31 04:46:42;;;;;;;13.10;3.88;;;;;;;;;;4942810;28;92500;-87
2023/07/31 04:49:10;;;;;;;10.10;3.60;;;;;;;;;;4952525;28;93325;-86
2023/07/31 04:51:36;;;;;;;13.10;4.32;;;;;;;;;;4953549;28;94305;-86
2023/07/31 04:54:03;;;;;;;12.07;4.32;;;;;;;;;;4950147;28;92953;-86
2023/07/31 04:56:30;;;;;;;12.60;3.83;;;;;;;;;;4946219;28;93584;-87
2023/07/31 04:58:56;;;;;;;11.15;3.65;;;;;;;;;;4940747;28;93152;-87
2023/07/31 05:01:23;;;;;;;10.35;3.35;;;;;;;;;;4956042;28;92212;-87
2023/07/31 05:03:49;;;;;;;10.10;3.65;;;;;;;;;;4952138;28;93259;-85
2023/07/31 05:06:16;;;;;;;11.15;3.72;;;;;;;;;;4956440;28;92890;-85
2023/07/31 05:08:42;;;;;;;10.70;3.65;;;;;;;;;;4968484;28;95247;-84
2023/07/31 05:11:09;;;;;;;10.38;3.50;;;;;;;;;;4955675;28;93249;-86
2023/07/31 05:13:35;;;;;;;9.40;3.63;;;;;;;;;;4953873;28;92812;-85
2023/07/31 05:16:02;;;;;;;12.20;3.97;;;;;;;;;;4940851;28;94770;-86
2023/07/31 05:18:29;;;;;;;10.95;3.60;;;;;;;;;;4953118;28;93619;-87
2023/07/31 05:20:56;;;;;;;9.63;3.33;;;;;;;;;;4954203;28;92441;-87
2023/07/31 05:23:22;;;;;;;13.48;3.22;;;;;;;;;;4941257;28;93192;-87
2023/07/31 05:25:49;;;;;;;11.52;3.63;;;;;;;;;;4935607;28;91791;-86
2023/07/31 05:28:15;;;;;;;11.30;3.90;;;;;;;;;;4950581;28;92537;-85
2023/07/31 05:30:42;;;;;;;11.05;3.60;;;;;;;;;;4948697;28;92318;-85
2023/07/31 05:33:08;;;;;;;12.23;3.40;;;;;;;;;;4957274;28;94040;-84
2023/07/31 05:35:38;;;;;;;8.98;3.50;;;;;;;;;;4959013;28;94175;-85
2023/07/31 05:38:05;;;;;;;10.38;3.22;;;;;;;;;;4966238;28;92186;-86
2023/07/31 05:40:35;;;;;;;9.63;2.95;;;;;;;;;;4965322;28;91726;-87
2023/07/31 05:43:01;;;;;;;9.00;3.25;;;;;;;;;;4948119;28;92910;-85
2023/07/31 05:45:28;;;;;;;9.52;3.25;;;;;;;;;;4954395;28;93019;-86
2023/07/31 05:47:54;;;;;;;8.35;2.80;;;;;;;;;;4954173;28;93455;-87
2023/07/31 05:50:21;;;;;;;7.60;2.60;;;;;;;;;;4946951;28;92759;-86
2023/07/31 05:52:48;;;;;;;8.98;3.08;;;;;;;;;;4945708;28;92829;-85
2023/07/31 05:55:14;;;;;;;10.35;3.10;;;;;;;;;;4968331;28;93087;-86
2023/07/31 05:57:41;;;;;;;9.13;2.42;;;;;;;;;;4952692;28;94775;-86
2023/07/31 06:00:08;;;;;;;6.78;2.60;;;;;;;;;;4962375;28;92081;-86
2023/07/31 06:02:36;;;;;;;8.68;2.70;;;;;;;;;;4955982;28;92579;-87
2023/07/31 06:05:05;;;;;;;8.07;2.75;;;;;;;;;;4953916;28;93211;-88
2023/07/31 06:07:32;;;;;;;7.90;2.60;;;;;;;;;;4968693;28;92440;-89
2023/07/31 06:10:04;;;;;;;8.90;2.60;;;;;;;;;;4966851;28;93254;-89
2023/07/31 06:12:31;;;;;;;6.75;2.63;;;;;;;;;;4960706;28;92622;-89
2023/07/31 06:14:58;;;;;;;18.23;3.72;;;;;;;;;;4960435;28;94872;-84
2023/07/31 06:17:25;;;;;;;8.45;2.80;;;;;;;;;;4959623;28;92411;-84
2023/07/31 06:19:52;;;;;;;8.70;2.70;;;;;;;;;;4954626;28;92424;-83
2023/07/31 06:22:19;;;;;;;8.55;3.13;;;;;;;;;;4954743;28;94805;-83
2023/07/31 06:24:46;;;;;;;8.13;3.03;;;;;;;;;;4943734;28;93395;-83
2023/07/31 06:27:12;;;;;;;8.35;2.50;;;;;;;;;;4949797;28;92562;-84
2023/07/31 06:29:39;;;;;;;6.88;2.60;;;;;;;;;;4956888;28;93045;-82
2023/07/31 06:32:05;;;;;;;7.25;2.38;;;;;;;;;;4950804;28;92474;-83
2023/07/31 06:34:32;;;;;;;8.23;2.63;;;;;;;;;;4937241;28;92976;-83
2023/07/31 06:36:58;;;;;;;7.75;2.65;;;;;;;;;;4937386;28;93787;-83
2023/07/31 06:39:25;;;;;;;7.72;2.53;;;;;;;;;;4936492;28;91765;-82
2023/07/31 06:41:51;;;;;;;6.80;2.65;;;;;;;;;;4935407;28;93621;-82
2023/07/31 06:44:19;;;;;;;7.15;2.40;;;;;;;;;;4932395;28;95952;-82
2023/07/31 06:46:46;;;;;;;7.50;2.70;;;;;;;;;;4937677;28;94944;-82
2023/07/31 06:49:14;;;;;;;6.68;2.60;;;;;;;;;;4939906;28;95170;-82
2023/07/31 06:51:43;;;;;;;5.80;2.22;;;;;;;;;;4949519;28;93162;-82
2023/07/31 06:54:10;;;;;;;7.28;2.40;;;;;;;;;;4947769;28;92422;-82
2023/07/31 06:56:37;;;;;;;6.88;2.58;;;;;;;;;;4943880;28;93173;-82
2023/07/31 06:59:07;;;;;;;6.43;2.20;;;;;;;;;;4939461;28;92468;-83
2023/07/31 07:01:34;;;;;;;7.50;2.10;;;;;;;;;;4945751;28;92762;-80
2023/07/31 07:04:01;;;;;;;7.18;2.45;;;;;;;;;;4917250;28;95011;-80
2023/07/31 07:06:27;;;;;;;6.75;2.20;;;;;;;;;;4943839;28;92502;-81
2023/07/31 07:08:55;;;;;;;5.85;2.42;;;;;;;;;;4951166;28;92503;-81
2023/07/31 07:11:22;;;;;;;5.63;2.17;;;;;;;;;;4944818;28;96736;-81
2023/07/31 07:13:49;;;;;;;5.40;1.90;;;;;;;;;;4930354;28;95298;-81
2023/07/31 07:16:15;;;;;;;6.50;2.00;;;;;;;;;;4948595;28;93026;-81
2023/07/31 07:18:42;;;;;;;7.93;2.22;;;;;;;;;;4953373;28;92417;-80
2023/07/31 07:21:28;;;;;;;4.78;2.00;;;;;;;;;;4942048;28;92622;-81
2023/07/31 07:23:54;;;;;;;8.90;2.28;;;;;;;;;;4949776;28;92405;-81
2023/07/31 07:26:21;;;;;;;5.32;2.05;;;;;;;;;;4950698;28;92347;-82
2023/07/31 07:28:47;;;;;;;5.63;1.90;;;;;;;;;;4945102;28;93554;-80
2023/07/31 07:31:14;;;;;;;5.60;1.90;;;;;;;;;;4931890;28;93589;-81
2023/07/31 07:33:41;;;;;;;6.53;2.20;;;;;;;;;;4941255;28;92651;-82
2023/07/31 07:36:09;;;;;;;5.85;2.22;;;;;;;;;;4933143;28;95564;-82
2023/07/31 07:38:37;;;;;;;5.43;2.10;;;;;;;;;;4937340;28;93741;-82
2023/07/31 07:41:03;;;;;;;5.95;2.30;;;;;;;;;;4946036;28;92753;-82
2023/07/31 07:43:30;;;;;;;6.75;2.20;;;;;;;;;;4936543;28;93652;-83
2023/07/31 07:45:57;;;;;;;5.95;2.08;;;;;;;;;;4934537;28;92556;-82
2023/07/31 07:48:25;;;;;;;6.78;2.13;;;;;;;;;;4944470;28;93409;-82
2023/07/31 07:50:51;;;;;;;4.85;1.95;;;;;;;;;;4941479;28;93359;-83
2023/07/31 07:53:18;;;;;;;6.78;2.47;;;;;;;;;;4943732;28;92199;-88
2023/07/31 07:55:44;;;;;;;7.55;2.40;;;;;;;;;;4931544;28;94231;-88
2023/07/31 07:58:11;;;;;;;6.03;2.40;;;;;;;;;;4932005;28;92886;-87
2023/07/31 08:00:38;;;;;;;5.50;2.20;;;;;;;;;;4939511;28;94793;-87
2023/07/31 08:03:04;;;;;;;5.35;2.00;;;;;;;;;;4955043;28;92976;-86
2023/07/31 08:05:34;;;;;;;5.07;2.00;;;;;;;;;;4967886;28;92723;-86
2023/07/31 08:08:01;;;;;;;5.68;2.00;;;;;;;;;;4949582;28;94088;-86
2023/07/31 08:10:27;;;;;;;5.13;2.10;;;;;;;;;;4934005;28;93137;-87
2023/07/31 08:12:54;;;;;;;5.88;1.98;;;;;;;;;;4936741;28;92811;-89
2023/07/31 08:15:21;;;;;;;5.88;1.90;;;;;;;;;;4942760;28;93037;-86
2023/07/31 08:17:47;;;;;;;5.95;2.10;;;;;;;;;;4944467;28;93933;-85
2023/07/31 08:20:14;;;;;;;4.97;2.17;;;;;;;;;;4943913;28;94697;-85
2023/07/31 08:22:41;;;;;;;3.95;1.73;;;;;;;;;;4942207;28;93130;-85
2023/07/31 08:25:07;;;;;;;4.65;1.50;;;;;;;;;;4939600;28;95163;-85
2023/07/31 08:27:34;;;;;;;3.58;1.75;;;;;;;;;;4954217;28;95204;-84
2023/07/31 08:30:01;;;;;;;4.38;1.80;;;;;;;;;;4953079;28;93112;-85
2023/07/31 08:32:27;;;;;;;4.03;1.73;;;;;;;;;;4952115;28;92870;-82
2023/07/31 08:34:54;;;;;;;7.05;2.00;;;;;;;;;;4928712;28;95485;-84
2023/07/31 08:37:21;;;;;;;5.15;1.80;;;;;;;;;;4948488;28;95571;-85
2023/07/31 08:39:51;;;;;;;6.43;2.05;;;;;;;;;;4939889;28;92788;-85
2023/07/31 08:42:17;;;;;;;5.10;2.00;;;;;;;;;;4948430;28;91918;-84
2023/07/31 08:44:44;;;;;;;3.88;1.77;;;;;;;;;;4934720;28;92493;-85
2023/07/31 08:47:11;;;;;;;5.47;1.80;;;;;;;;;;4947481;28;92808;-84
2023/07/31 08:49:38;;;;;;;5.63;1.70;;;;;;;;;;4941494;28;95854;-83
2023/07/31 08:52:05;;;;;;;3.03;1.40;;;;;;;;;;4951988;28;92413;-84
2023/07/31 08:54:33;;;;;;;3.53;1.63;;;;;;;;;;4944060;28;93334;-84
2023/07/31 08:57:00;;;;;;;4.57;1.63;;;;;;;;;;4960168;28;93737;-85
2023/07/31 08:59:28;;;;;;;4.38;2.03;;;;;;;;;;4947928;28;92871;-84
2023/07/31 09:01:57;;;;;;;3.60;1.50;;;;;;;;;;4938285;28;92369;-84
2023/07/31 09:04:24;;;;;;;3.67;1.70;;;;;;;;;;4933181;28;92452;-84
2023/07/31 09:06:52;;;;;;;4.07;1.80;;;;;;;;;;4943328;28;92931;-84
2023/07/31 09:09:20;;;;;;;3.53;1.60;;;;;;;;;;4932129;28;96473;-85
2023/07/31 09:11:47;;;;;;;3.35;1.42;;;;;;;;;;4950880;28;92913;-85
2023/07/31 09:14:14;;;;;;;5.13;1.65;;;;;;;;;;4945848;28;94821;-85
2023/07/31 09:16:56;;;;;;;3.70;1.70;;;;;;;;;;4976382;28;92170;-85
2023/07/31 09:19:27;;;;;;;3.05;1.50;;;;;;;;;;4971400;28;92832;-86
2023/07/31 09:21:53;;;;;;;3.17;1.50;;;;;;;;;;4934748;28;93360;-86
2023/07/31 09:24:27;;;;;;;4.13;1.58;;;;;;;;;;4949818;28;92558;-85
2023/07/31 09:26:54;;;;;;;3.40;1.50;;;;;;;;;;4944274;28;93352;-85
2023/07/31 09:29:21;;;;;;;3.17;1.52;;;;;;;;;;4934071;28;93164;-86
2023/07/31 09:31:48;;;;;;;3.00;1.25;;;;;;;;;;4943002;28;92173;-85
2023/07/31 09:34:15;;;;;;;3.80;1.60;;;;;;;;;;4943678;28;92813;-85
2023/07/31 09:36:52;;;;;;;3.67;1.60;;;;;;;;;;4930404;28;93018;-84
2023/07/31 09:39:20;;;;;;;3.15;1.40;;;;;;;;;;4938646;28;95226;-85
2023/07/31 09:41:53;;;;;;;3.30;1.40;;;;;;;;;;4950368;28;95193;-85
2023/07/31 09:44:19;;;;;;;2.85;1.50;;;;;;;;;;4943741;28;95656;-84
2023/07/31 09:46:46;;;;;;;2.92;1.42;;;;;;;;;;4951077;28;92639;-85
2023/07/31 09:49:13;;;;;;;4.15;1.50;;;;;;;;;;4944819;28;94025;-87
2023/07/31 09:51:41;;;;;;;3.30;1.55;;;;;;;;;;4968886;28;92553;-88
2023/07/31 09:54:15;;;;;;;3.80;1.60;;;;;;;;;;4957320;28;92751;-87
2023/07/31 09:56:42;;;;;;;;;;;;;;;;;;4963402;28;91628;-87
2023/07/31 09:59:10;;;;;;;4.78;1.60;;;;;;;;;;4956765;28;92373;-87
2023/07/31 10:01:37;;;;;;;3.47;1.52;;;;;;;;;;4955546;28;94403;-87
2023/07/31 10:04:05;;;;;;;6.80;1.48;;;;;;;;;;4935141;28;96129;-86
2023/07/31 10:06:33;;;;;;;4.07;1.38;;;;;;;;;;4943384;28;93615;-85
2023/07/31 10:09:01;;;;;;;4.68;1.40;;;;;;;;;;4935684;28;92546;-86
2023/07/31 10:11:28;;;;;;;;;;;;;;;;;;4954128;28;93418;-87
2023/07/31 10:13:55;;;;;;;2.85;1.40;;;;;;;;;;4957226;28;118216;-87
2023/07/31 10:16:22;;;;;;;2.53;1.30;;;;;;;;;;4933879;28;94890;-86
2023/07/31 10:18:48;;;;;;;;;;;;;;;;;;4934177;28;92482;-86
2023/07/31 10:21:15;;;;;;;3.92;1.50;;;;;;;;;;4936583;28;104016;-86
2023/07/31 10:23:42;;;;;;;3.78;1.55;;;;;;;;;;4935678;28;94743;-86
2023/07/31 10:26:09;;;;;;;;;;;;;;;;;;4937514;28;92592;-87
2023/07/31 10:28:36;;;;;;;4.70;1.80;;;;;;;;;;4941837;28;104498;-87
2023/07/31 10:31:03;;;;;;;4.90;1.80;;;;;;;;;;4956315;28;92770;-84
2023/07/31 10:33:30;;;;;;;3.95;1.65;;;;;;;;;;4933872;28;92746;-85
2023/07/31 10:36:13;;;;;;;4.68;1.65;;;;;;;;;;4934447;28;92840;-86
2023/07/31 10:38:40;;;;;;;4.03;1.60;;;;;;;;;;4951039;28;92738;-85
2023/07/31 10:41:10;;;;;;;6.93;1.67;;;;;;;;;;4946086;28;93104;-85
2023/07/31 10:43:37;;;;;;;4.70;1.67;;;;;;;;;;4950239;28;96073;-85
2023/07/31 10:46:09;;;;;;;4.35;1.77;;;;;;;;;;4940592;28;91713;-85
2023/07/31 10:48:36;;;;;;;3.90;1.52;;;;;;;;;;4924852;28;92826;-85
2023/07/31 10:51:03;;;;;;;;;;;;;;;;;;4945477;28;93058;-85
2023/07/31 10:53:30;;;;;;;3.70;1.73;;;;;;;;;;4942257;28;105569;-86
2023/07/31 10:56:00;;;;;;;3.50;1.60;;;;;;;;;;4936666;28;93877;-85
2023/07/31 10:58:27;;;;;;;3.15;1.50;;;;;;;;;;4931183;28;92482;-85
2023/07/31 11:00:58;;;;;;;3.33;1.60;;;;;;;;;;4935056;28;93191;-86
2023/07/31 11:03:25;;;;;;;3.58;1.42;;;;;;;;;;4934819;28;92912;-85
2023/07/31 11:05:54;;;;;;;2.45;1.50;;;;;;;;;;4956880;28;93812;-86
2023/07/31 11:08:24;;;;;;;3.45;1.55;;;;;;;;;;4947859;28;92368;-85
2023/07/31 11:11:04;;;;;;;3.53;1.50;;;;;;;;;;4965519;28;91773;-85
2023/07/31 11:13:31;;;;;;;4.00;1.40;;;;;;;;;;4957739;28;92465;-85
2023/07/31 11:15:58;;;;;;;3.38;1.63;;;;;;;;;;4933219;28;92999;-86
2023/07/31 11:18:25;;;;;;;2.50;1.50;;;;;;;;;;4922705;28;94876;-86
2023/07/31 11:20:52;;;;;;;2.67;1.33;;;;;;;;;;4936563;28;96095;-86
2023/07/31 11:23:19;;;;;;;2.88;1.35;;;;;;;;;;4950843;28;93571;-86
2023/07/31 11:25:46;;;;;;;2.97;1.38;;;;;;;;;;4945400;28;92781;-85
2023/07/31 11:28:13;;;;;;;2.33;1.38;;;;;;;;;;4940166;28;92902;-86
2023/07/31 11:30:40;;;;;;;2.28;1.23;;;;;;;;;;4946062;28;92769;-85
2023/07/31 11:33:08;;;;;;;3.80;1.60;;;;;;;;;;4944352;28;93940;-86
2023/07/31 11:35:47;;;;;;;3.60;1.30;;;;;;;;;;4944723;28;95418;-86
2023/07/31 11:38:14;;;;;;;;;;;;;;;;;;4952099;28;92658;-86
2023/07/31 11:40:41;;;;;;;3.90;1.58;;;;;;;;;;4950130;28;96321;-87
2023/07/31 11:43:08;;;;;;;;;;;;;;;;;;4935095;28;95565;-87
2023/07/31 11:45:35;;;;;;;4.38;1.45;;;;;;;;;;4939598;28;92553;-86
2023/07/31 11:48:02;;;;;;;3.22;1.60;;;;;;;;;;4946144;28;92733;-87
2023/07/31 11:50:33;;;;;;;4.20;1.73;;;;;;;;;;4932976;28;93194;-85
2023/07/31 11:53:01;;;;;;;3.47;1.50;;;;;;;;;;4933242;28;92560;-85
2023/07/31 11:55:28;;;;;;;4.30;1.50;;;;;;;;;;4947972;28;92918;-86
2023/07/31 11:57:57;;;;;;;5.20;1.50;;;;;;;;;;4946822;28;93121;-84
2023/07/31 12:00:24;;;;;;;3.30;1.50;;;;;;;;;;4938327;28;92740;-84
2023/07/31 12:02:51;;;;;;;3.97;1.48;;;;;;;;;;4937659;28;92870;-82
2023/07/31 12:05:17;;;;;;;;;;;;;;;;;;4941880;28;93785;-84
2023/07/31 12:07:51;;;;;;;3.03;1.50;;;;;;;;;;4954958;28;94917;-85
2023/07/31 12:10:24;;;;;;;3.15;1.58;;;;;;;;;;4959055;28;92310;-84
2023/07/31 12:12:58;;;;;;;4.43;1.42;;;;;;;;;;4949357;28;92455;-85
2023/07/31 12:15:35;;;;;;;2.75;1.40;;;;;;;;;;4932762;28;94804;-84
2023/07/31 12:18:05;;;;;;;3.65;1.25;;;;;;;;;;4946518;28;93206;-83
2023/07/31 12:20:33;;;;;;;4.78;1.48;;;;;;;;;;4947016;28;93032;-83
2023/07/31 12:23:00;;;;;;;2.72;1.55;;;;;;;;;;4949935;28;93233;-85
2023/07/31 12:25:31;;;;;;;3.75;1.30;;;;;;;;;;4934153;28;91798;-85
2023/07/31 12:27:58;;;;;;;3.90;1.60;;;;;;;;;;4933004;28;92971;-85
2023/07/31 12:30:34;;;;;;;2.40;1.30;;;;;;;;;;4944979;28;93309;-85
2023/07/31 12:33:13;;;;;;;2.75;1.30;;;;;;;;;;4941417;28;95245;-85
2023/07/31 12:35:44;;;;;;;2.30;1.30;;;;;;;;;;4939695;28;95228;-84
2023/07/31 12:38:11;;;;;;;2.10;1.20;;;;;;;;;;4941260;28;92371;-85
2023/07/31 12:40:39;;;;;;;2.72;1.30;;;;;;;;;;4946246;28;93089;-84
2023/07/31 12:43:05;;;;;;;4.35;1.15;;;;;;;;;;4949176;28;93005;-86
2023/07/31 12:45:32;;;;;;;4.40;1.35;;;;;;;;;;4935343;28;92616;-85
2023/07/31 12:47:59;;;;;;;2.53;1.50;;;;;;;;;;4938574;28;93636;-85
2023/07/31 12:50:25;;;;;;;2.03;1.20;;;;;;;;;;4947396;28;94857;-85
2023/07/31 12:52:56;;;;;;;3.28;1.20;;;;;;;;;;4935630;28;92910;-85
2023/07/31 12:55:23;;;;;;;2.22;1.35;;;;;;;;;;4938858;28;93056;-84
2023/07/31 12:57:50;;;;;;;3.47;1.33;;;;;;;;;;4933141;28;95252;-85
2023/07/31 13:00:16;;;;;;;2.75;1.30;;;;;;;;;;4931559;28;93871;-84
2023/07/31 13:02:43;;;;;;;2.15;1.08;;;;;;;;;;4941766;28;94737;-85
2023/07/31 13:05:10;;;;;;;3.13;1.50;;;;;;;;;;4957068;28;93384;-85
2023/07/31 13:07:37;;;;;;;2.88;1.48;;;;;;;;;;4931093;28;92741;-85
2023/07/31 13:10:03;;;;;;;2.42;1.30;;;;;;;;;;4936880;28;94522;-84
2023/07/31 13:12:30;;;;;;;3.10;1.50;;;;;;;;;;4934874;28;93204;-84
2023/07/31 13:14:57;;;;;;;2.40;1.20;;;;;;;;;;4940534;28;92883;-85
2023/07/31 13:17:23;;;;;;;2.17;1.35;;;;;;;;;;4927614;28;93091;-83
2023/07/31 13:19:50;;;;;;;2.80;1.40;;;;;;;;;;4933768;28;92505;-86
2023/07/31 13:22:16;;;;;;;2.30;1.33;;;;;;;;;;4938531;28;95296;-84
2023/07/31 13:24:43;;;;;;;2.83;1.40;;;;;;;;;;4943761;28;92972;-83
2023/07/31 13:27:09;;;;;;;2.00;1.40;;;;;;;;;;4940784;28;93037;-83
2023/07/31 13:29:36;;;;;;;1.88;1.25;;;;;;;;;;4937491;28;93006;-82
2023/07/31 13:32:03;;;;;;;2.60;1.40;;;;;;;;;;4925283;28;93212;-82
2023/07/31 13:34:32;;;;;;;2.45;1.30;;;;;;;;;;4931879;28;94334;-83
2023/07/31 13:36:59;;;;;;;2.35;1.05;;;;;;;;;;4928450;28;93662;-83
2023/07/31 13:39:26;;;;;;;3.50;1.48;;;;;;;;;;4937751;28;92116;-84
2023/07/31 13:41:54;;;;;;;2.22;1.30;;;;;;;;;;4937579;28;92521;-85
2023/07/31 13:44:22;;;;;;;2.00;1.33;;;;;;;;;;4942857;28;94104;-85
2023/07/31 13:46:48;;;;;;;3.03;1.27;;;;;;;;;;4943453;28;96906;-84
2023/07/31 13:49:15;;;;;;;2.55;1.38;;;;;;;;;;4940480;28;93324;-86
2023/07/31 13:51:41;;;;;;;2.28;1.33;;;;;;;;;;4948896;28;92803;-84
2023/07/31 13:54:08;;;;;;;1.95;1.30;;;;;;;;;;4944392;28;92989;-84
2023/07/31 13:56:35;;;;;;;2.45;1.35;;;;;;;;;;4935360;28;93796;-85
2023/07/31 13:59:01;;;;;;;1.80;1.33;;;;;;;;;;4929941;28;93780;-84
2023/07/31 14:01:28;;;;;;;4.18;1.50;;;;;;;;;;4931591;28;93026;-85
2023/07/31 14:03:55;;;;;;;2.80;1.40;;;;;;;;;;4930223;28;92335;-83
2023/07/31 14:06:21;;;;;;;3.65;1.70;;;;;;;;;;4950763;28;92586;-84
2023/07/31 14:08:48;;;;;;;2.63;1.38;;;;;;;;;;4950454;28;93073;-83
2023/07/31 14:11:14;;;;;;;4.32;1.70;;;;;;;;;;4922917;28;95797;-84
2023/07/31 14:13:41;;;;;;;3.45;1.55;;;;;;;;;;4957671;28;94336;-84
2023/07/31 14:16:07;;;;;;;3.55;1.48;;;;;;;;;;4950652;28;94831;-85
2023/07/31 14:18:34;;;;;;;2.58;1.50;;;;;;;;;;4964189;28;92052;-82
2023/07/31 14:21:01;;;;;;;3.97;1.52;;;;;;;;;;4966187;28;92724;-83
2023/07/31 14:23:27;;;;;;;2.60;1.40;;;;;;;;;;4957638;28;95886;-85
2023/07/31 14:25:54;;;;;;;9.18;1.80;;;;;;;;;;4953054;28;92569;-85
2023/07/31 14:28:20;;;;;;;3.88;1.80;;;;;;;;;;4953105;28;91749;-86
2023/07/31 14:30:47;;;;;;;4.78;1.70;;;;;;;;;;4953943;28;92926;-87
2023/07/31 14:33:13;;;;;;;3.95;1.70;;;;;;;;;;4945706;28;95972;-85
2023/07/31 14:35:40;;;;;;;4.95;1.80;;;;;;;;;;4948827;28;94773;-86
2023/07/31 14:38:06;;;;;;;5.55;2.05;;;;;;;;;;4968408;28;92489;-87
2023/07/31 14:40:33;;;;;;;6.03;1.80;;;;;;;;;;4969346;28;92108;-86
2023/07/31 14:43:00;;;;;;;6.47;1.90;;;;;;;;;;4960333;28;96095;-84
2023/07/31 14:45:26;;;;;;;3.55;1.60;;;;;;;;;;4959796;28;92346;-85